sensor_id;sensor_type;location;lat;lon;timestamp;P1;durP1;ratioP1;P2;durP2;ratioP2
26914;SDS011;14480;52.608;13.416;2022-11-24T07:15:42;99.07;;;37.25;;
26914;SDS011;14480;52.608;13.416;2022-11-24T07:20:46;74.32;;;34.40;;
26914;SDS011;14480;52.608;13.416;2022-11-24T07:25:50;79.72;;;34.28;;
26914;SDS011;14480;52.608;13.416;2022-11-24T07:30:55;78.80;;;34.70;;
26914;SDS011;14480;52.608;13.416;2022-11-24T07:35:59;93.03;;;36.33;;
26914;SDS011;14480;52.608;13.416;2022-11-24T07:41:05;89.70;;;37.75;;
26914;SDS011;14480;52.608;13.416;2022-11-24T07:46:13;90.88;;;37.78;;
26914;SDS011;14480;52.608;13.416;2022-11-24T07:51:18;96.30;;;36.88;;
26914;SDS011;14480;52.608;13.416;2022-11-24T07:56:24;88.72;;;36.60;;
26914;SDS011;14480;52.608;13.416;2022-11-24T08:01:28;81.15;;;35.03;;
26914;SDS011;14480;52.608;13.416;2022-11-24T08:06:32;88.05;;;37.30;;
26914;SDS011;14480;52.608;13.416;2022-11-24T08:11:44;87.10;;;36.15;;
26914;SDS011;14480;52.608;13.416;2022-11-24T08:16:49;88.60;;;37.47;;
26914;SDS011;14480;52.608;13.416;2022-11-24T08:21:53;81.25;;;35.40;;
26914;SDS011;14480;52.608;13.416;2022-11-24T08:26:57;86.57;;;37.03;;
26914;SDS011;14480;52.608;13.416;2022-11-24T08:32:02;86.82;;;36.67;;
26914;SDS011;14480;52.608;13.416;2022-11-24T08:37:06;92.82;;;38.45;;
26914;SDS011;14480;52.608;13.416;2022-11-24T08:42:10;90.10;;;36.85;;
26914;SDS011;14480;52.608;13.416;2022-11-24T08:47:18;92.13;;;38.28;;
26914;SDS011;14480;52.608;13.416;2022-11-24T08:52:40;83.25;;;36.45;;
26914;SDS011;14480;52.608;13.416;2022-11-24T08:57:43;84.70;;;36.58;;
26914;SDS011;14480;52.608;13.416;2022-11-24T09:02:55;84.32;;;35.30;;
26914;SDS011;14480;52.608;13.416;2022-11-24T09:08:00;83.93;;;35.58;;
26914;SDS011;14480;52.608;13.416;2022-11-24T09:13:03;75.95;;;33.08;;
26914;SDS011;14480;52.608;13.416;2022-11-24T09:18:08;73.93;;;32.78;;
26914;SDS011;14480;52.608;13.416;2022-11-24T09:23:12;77.60;;;35.25;;
26914;SDS011;14480;52.608;13.416;2022-11-24T09:28:16;78.63;;;35.83;;
26914;SDS011;14480;52.608;13.416;2022-11-24T09:33:21;81.53;;;35.75;;
26914;SDS011;14480;52.608;13.416;2022-11-24T09:43:30;81.07;;;35.38;;
26914;SDS011;14480;52.608;13.416;2022-11-24T09:48:41;75.90;;;35.05;;
26914;SDS011;14480;52.608;13.416;2022-11-24T09:53:50;80.78;;;36.85;;
26914;SDS011;14480;52.608;13.416;2022-11-24T09:59:01;82.18;;;36.55;;
26914;SDS011;14480;52.608;13.416;2022-11-24T10:04:13;78.50;;;36.75;;
26914;SDS011;14480;52.608;13.416;2022-11-24T10:09:35;87.13;;;38.60;;
26914;SDS011;14480;52.608;13.416;2022-11-24T10:14:55;84.60;;;37.88;;
26914;SDS011;14480;52.608;13.416;2022-11-24T10:20:11;84.85;;;39.13;;
26914;SDS011;14480;52.608;13.416;2022-11-24T10:25:24;89.72;;;39.90;;
26914;SDS011;14480;52.608;13.416;2022-11-24T10:30:32;86.63;;;39.40;;
26914;SDS011;14480;52.608;13.416;2022-11-24T10:35:42;82.05;;;39.00;;
26914;SDS011;14480;52.608;13.416;2022-11-24T10:40:49;88.25;;;41.20;;
26914;SDS011;14480;52.608;13.416;2022-11-24T10:46:03;90.00;;;40.58;;
26914;SDS011;14480;52.608;13.416;2022-11-24T10:51:23;77.27;;;38.87;;
26914;SDS011;14480;52.608;13.416;2022-11-24T10:56:39;81.78;;;38.33;;
26914;SDS011;14480;52.608;13.416;2022-11-24T11:01:48;77.90;;;38.33;;
26914;SDS011;14480;52.608;13.416;2022-11-24T11:07:06;80.68;;;40.08;;
26914;SDS011;14480;52.608;13.416;2022-11-24T11:12:17;78.60;;;39.38;;
26914;SDS011;14480;52.608;13.416;2022-11-24T11:17:42;81.03;;;40.05;;
26914;SDS011;14480;52.608;13.416;2022-11-24T11:22:51;84.40;;;40.67;;
26914;SDS011;14480;52.608;13.416;2022-11-24T11:33:28;75.47;;;38.75;;
26914;SDS011;14480;52.608;13.416;2022-11-24T11:38:56;81.78;;;37.53;;
26914;SDS011;14480;52.608;13.416;2022-11-24T11:44:09;80.00;;;39.80;;
26914;SDS011;14480;52.608;13.416;2022-11-24T11:49:31;82.20;;;39.70;;
26914;SDS011;14480;52.608;13.416;2022-11-24T11:54:43;79.45;;;39.22;;
26914;SDS011;14480;52.608;13.416;2022-11-24T12:00:13;88.38;;;40.85;;
26914;SDS011;14480;52.608;13.416;2022-11-24T12:10:37;80.55;;;39.97;;
26914;SDS011;14480;52.608;13.416;2022-11-24T12:21:57;79.07;;;39.25;;
26914;SDS011;14480;52.608;13.416;2022-11-24T12:27:30;77.97;;;38.13;;
26914;SDS011;14480;52.608;13.416;2022-11-24T12:38:26;81.40;;;39.88;;
26914;SDS011;14480;52.608;13.416;2022-11-24T12:44:03;78.63;;;39.30;;
26914;SDS011;14480;52.608;13.416;2022-11-24T12:49:22;75.53;;;38.28;;
26914;SDS011;14480;52.608;13.416;2022-11-24T12:54:39;74.15;;;38.70;;
26914;SDS011;14480;52.608;13.416;2022-11-24T12:59:50;70.85;;;38.47;;
26914;SDS011;14480;52.608;13.416;2022-11-24T13:05:03;73.57;;;36.38;;
26914;SDS011;14480;52.608;13.416;2022-11-24T13:10:25;69.10;;;36.47;;
26914;SDS011;14480;52.608;13.416;2022-11-24T13:21:46;73.82;;;39.42;;
26914;SDS011;14480;52.608;13.416;2022-11-24T13:27:22;77.80;;;39.10;;
26914;SDS011;14480;52.608;13.416;2022-11-24T13:32:56;79.43;;;41.05;;
26914;SDS011;14480;52.608;13.416;2022-11-24T13:38:02;77.50;;;40.17;;
26914;SDS011;14480;52.608;13.416;2022-11-24T13:43:46;78.45;;;38.78;;
26914;SDS011;14480;52.608;13.416;2022-11-24T13:49:23;78.88;;;39.05;;
26914;SDS011;14480;52.608;13.416;2022-11-24T13:54:41;68.25;;;36.90;;
26914;SDS011;14480;52.608;13.416;2022-11-24T13:59:45;75.55;;;38.08;;
26914;SDS011;14480;52.608;13.416;2022-11-24T14:04:50;66.93;;;36.33;;
26914;SDS011;14480;52.608;13.416;2022-11-24T14:15:13;72.45;;;35.85;;
26914;SDS011;14480;52.608;13.416;2022-11-24T14:20:26;75.15;;;37.53;;
26914;SDS011;14480;52.608;13.416;2022-11-24T14:25:30;65.07;;;35.92;;
26914;SDS011;14480;52.608;13.416;2022-11-24T14:30:36;70.10;;;36.53;;
26914;SDS011;14480;52.608;13.416;2022-11-24T14:35:43;67.47;;;36.75;;
26914;SDS011;14480;52.608;13.416;2022-11-24T14:40:51;71.55;;;37.25;;
26914;SDS011;14480;52.608;13.416;2022-11-24T14:45:57;71.22;;;37.90;;
26914;SDS011;14480;52.608;13.416;2022-11-24T14:51:06;69.70;;;36.38;;
26914;SDS011;14480;52.608;13.416;2022-11-24T14:56:20;77.13;;;39.30;;
26914;SDS011;14480;52.608;13.416;2022-11-24T15:01:32;67.72;;;36.42;;
26914;SDS011;14480;52.608;13.416;2022-11-24T15:06:39;73.95;;;38.78;;
26914;SDS011;14480;52.608;13.416;2022-11-24T15:11:43;75.78;;;38.33;;
26914;SDS011;14480;52.608;13.416;2022-11-24T15:16:48;77.80;;;40.23;;
26914;SDS011;14480;52.608;13.416;2022-11-24T15:21:53;77.45;;;41.08;;
26914;SDS011;14480;52.608;13.416;2022-11-24T15:32:01;71.38;;;38.25;;
26914;SDS011;14480;52.608;13.416;2022-11-24T15:37:12;76.45;;;39.35;;
26914;SDS011;14480;52.608;13.416;2022-11-24T15:42:16;76.38;;;39.97;;
26914;SDS011;14480;52.608;13.416;2022-11-24T15:47:20;76.70;;;39.38;;
26914;SDS011;14480;52.608;13.416;2022-11-24T15:52:26;76.97;;;38.42;;
26914;SDS011;14480;52.608;13.416;2022-11-24T16:02:34;75.05;;;38.38;;
26914;SDS011;14480;52.608;13.416;2022-11-24T16:07:40;76.72;;;39.92;;
26914;SDS011;14480;52.608;13.416;2022-11-24T16:12:46;78.28;;;39.10;;
26914;SDS011;14480;52.608;13.416;2022-11-24T16:17:50;78.03;;;38.28;;
26914;SDS011;14480;52.608;13.416;2022-11-24T16:22:55;75.50;;;37.90;;
26914;SDS011;14480;52.608;13.416;2022-11-24T16:27:59;75.97;;;38.53;;
26914;SDS011;14480;52.608;13.416;2022-11-24T16:33:03;79.37;;;40.10;;
26914;SDS011;14480;52.608;13.416;2022-11-24T16:38:10;86.37;;;42.17;;
26914;SDS011;14480;52.608;13.416;2022-11-24T16:43:17;87.95;;;41.17;;
26914;SDS011;14480;52.608;13.416;2022-11-24T16:48:21;82.28;;;41.03;;
26914;SDS011;14480;52.608;13.416;2022-11-24T16:53:26;82.78;;;40.22;;
26914;SDS011;14480;52.608;13.416;2022-11-24T16:58:32;80.35;;;40.45;;
26914;SDS011;14480;52.608;13.416;2022-11-24T17:03:36;90.95;;;43.28;;
26914;SDS011;14480;52.608;13.416;2022-11-24T17:08:42;80.00;;;40.83;;
26914;SDS011;14480;52.608;13.416;2022-11-24T17:13:50;82.63;;;38.83;;
26914;SDS011;14480;52.608;13.416;2022-11-24T17:19:01;76.80;;;39.30;;
26914;SDS011;14480;52.608;13.416;2022-11-24T17:24:07;77.50;;;39.88;;
26914;SDS011;14480;52.608;13.416;2022-11-24T17:29:16;79.32;;;41.13;;
26914;SDS011;14480;52.608;13.416;2022-11-24T17:34:20;86.85;;;42.03;;
26914;SDS011;14480;52.608;13.416;2022-11-24T17:39:26;84.30;;;42.55;;
26914;SDS011;14480;52.608;13.416;2022-11-24T17:44:32;84.65;;;41.40;;
26914;SDS011;14480;52.608;13.416;2022-11-24T17:49:40;88.85;;;42.20;;
26914;SDS011;14480;52.608;13.416;2022-11-24T17:54:48;94.32;;;44.40;;
26914;SDS011;14480;52.608;13.416;2022-11-24T17:59:51;82.78;;;41.75;;
26914;SDS011;14480;52.608;13.416;2022-11-24T18:04:56;83.65;;;41.78;;
26914;SDS011;14480;52.608;13.416;2022-11-24T18:10:02;87.75;;;42.40;;
26914;SDS011;14480;52.608;13.416;2022-11-24T18:15:06;83.55;;;41.05;;
26914;SDS011;14480;52.608;13.416;2022-11-24T18:20:11;89.05;;;43.85;;
26914;SDS011;14480;52.608;13.416;2022-11-24T18:25:19;88.43;;;44.08;;
26914;SDS011;14480;52.608;13.416;2022-11-24T18:30:23;90.57;;;43.78;;
26914;SDS011;14480;52.608;13.416;2022-11-24T18:35:29;87.63;;;43.28;;
26914;SDS011;14480;52.608;13.416;2022-11-24T18:40:37;86.28;;;44.00;;
26914;SDS011;14480;52.608;13.416;2022-11-24T18:45:42;90.63;;;45.17;;
26914;SDS011;14480;52.608;13.416;2022-11-24T18:50:48;91.78;;;45.88;;
26914;SDS011;14480;52.608;13.416;2022-11-24T18:55:55;86.95;;;43.38;;
26914;SDS011;14480;52.608;13.416;2022-11-24T19:01:07;88.63;;;42.25;;
26914;SDS011;14480;52.608;13.416;2022-11-24T19:06:14;90.60;;;45.38;;
26914;SDS011;14480;52.608;13.416;2022-11-24T19:11:21;91.97;;;44.53;;
26914;SDS011;14480;52.608;13.416;2022-11-24T19:16:25;91.00;;;44.30;;
26914;SDS011;14480;52.608;13.416;2022-11-24T19:21:30;97.53;;;47.30;;
26914;SDS011;14480;52.608;13.416;2022-11-24T19:26:38;91.93;;;44.17;;
26914;SDS011;14480;52.608;13.416;2022-11-24T19:31:43;94.97;;;46.22;;
26914;SDS011;14480;52.608;13.416;2022-11-24T19:36:47;86.13;;;43.80;;
26914;SDS011;14480;52.608;13.416;2022-11-24T19:41:52;82.55;;;40.85;;
26914;SDS011;14480;52.608;13.416;2022-11-24T19:46:58;78.07;;;39.17;;
26914;SDS011;14480;52.608;13.416;2022-11-24T19:52:02;85.07;;;41.70;;
26914;SDS011;14480;52.608;13.416;2022-11-24T19:57:10;82.40;;;40.47;;
26914;SDS011;14480;52.608;13.416;2022-11-24T20:02:13;83.80;;;42.05;;
26914;SDS011;14480;52.608;13.416;2022-11-24T20:07:18;88.07;;;42.83;;
26914;SDS011;14480;52.608;13.416;2022-11-24T20:12:26;82.15;;;40.28;;
26914;SDS011;14480;52.608;13.416;2022-11-24T20:17:32;77.65;;;39.28;;
26914;SDS011;14480;52.608;13.416;2022-11-24T20:22:38;78.53;;;38.47;;
26914;SDS011;14480;52.608;13.416;2022-11-24T20:27:44;76.63;;;38.70;;
26914;SDS011;14480;52.608;13.416;2022-11-24T20:32:47;81.30;;;39.72;;
26914;SDS011;14480;52.608;13.416;2022-11-24T20:37:52;77.43;;;39.47;;
26914;SDS011;14480;52.608;13.416;2022-11-24T20:43:00;79.45;;;38.50;;
26914;SDS011;14480;52.608;13.416;2022-11-24T20:48:04;93.32;;;42.97;;
26914;SDS011;14480;52.608;13.416;2022-11-24T20:53:08;86.93;;;41.45;;
26914;SDS011;14480;52.608;13.416;2022-11-24T20:58:13;86.68;;;41.25;;
26914;SDS011;14480;52.608;13.416;2022-11-24T21:08:23;73.65;;;35.58;;
26914;SDS011;14480;52.608;13.416;2022-11-24T21:13:31;77.82;;;37.38;;
26914;SDS011;14480;52.608;13.416;2022-11-24T21:18:37;84.10;;;40.45;;
26914;SDS011;14480;52.608;13.416;2022-11-24T21:23:41;94.55;;;43.05;;
26914;SDS011;14480;52.608;13.416;2022-11-24T21:28:49;95.22;;;43.97;;
26914;SDS011;14480;52.608;13.416;2022-11-24T21:38:57;88.15;;;40.53;;
26914;SDS011;14480;52.608;13.416;2022-11-24T21:44:03;85.15;;;39.78;;
26914;SDS011;14480;52.608;13.416;2022-11-24T21:49:07;83.53;;;40.53;;
26914;SDS011;14480;52.608;13.416;2022-11-24T21:54:26;92.30;;;42.10;;
26914;SDS011;14480;52.608;13.416;2022-11-24T21:59:38;88.32;;;42.00;;
26914;SDS011;14480;52.608;13.416;2022-11-24T22:04:45;91.18;;;43.38;;
26914;SDS011;14480;52.608;13.416;2022-11-24T22:09:52;103.82;;;45.83;;
26914;SDS011;14480;52.608;13.416;2022-11-24T22:20:07;107.88;;;44.70;;
26914;SDS011;14480;52.608;13.416;2022-11-24T22:25:11;99.32;;;42.42;;
26914;SDS011;14480;52.608;13.416;2022-11-24T22:30:17;85.75;;;39.47;;
26914;SDS011;14480;52.608;13.416;2022-11-24T22:35:21;85.93;;;38.05;;
26914;SDS011;14480;52.608;13.416;2022-11-24T22:40:27;79.55;;;37.40;;
26914;SDS011;14480;52.608;13.416;2022-11-24T22:45:32;85.20;;;37.85;;
26914;SDS011;14480;52.608;13.416;2022-11-24T22:50:38;89.90;;;38.65;;
26914;SDS011;14480;52.608;13.416;2022-11-24T22:55:42;98.05;;;40.92;;
26914;SDS011;14480;52.608;13.416;2022-11-24T23:00:47;87.80;;;39.92;;
26914;SDS011;14480;52.608;13.416;2022-11-24T23:05:52;93.13;;;39.40;;
26914;SDS011;14480;52.608;13.416;2022-11-24T23:10:57;91.28;;;39.78;;
26914;SDS011;14480;52.608;13.416;2022-11-24T23:16:04;90.70;;;40.00;;
26914;SDS011;14480;52.608;13.416;2022-11-24T23:21:13;94.07;;;40.03;;
